Time;durP1;ratioP1;P1;durP2;ratioP2;P2;SDS_P1;SDS_P2;PMS_P1;PMS_P2;Temp;Humidity;BMP_temperature;BMP_pressure;BME280_temperature;BME280_humidity;BME280_pressure;Samples;Min_cycle;Max_cycle;Signal;HPM_P1;HPM_P2
2023/04/28 00:02:11;;;;;;;2.83;2.63;;;;;;;;;;5029846;28;20974;-58
2023/04/28 00:04:37;;;;;;;2.87;2.80;;;;;;;;;;5031621;28;20441;-58
2023/04/28 00:07:03;;;;;;;2.73;2.63;;;;;;;;;;5032064;28;20446;-58
2023/04/28 00:09:29;;;;;;;4.50;2.83;;;;;;;;;;5031889;28;20464;-58
2023/04/28 00:11:55;;;;;;;3.20;3.10;;;;;;;;;;5031272;28;20783;-58
2023/04/28 00:14:22;;;;;;;2.83;2.73;;;;;;;;;;5031832;28;20431;-58
2023/04/28 00:16:48;;;;;;;2.40;2.30;;;;;;;;;;5032324;28;20493;-58
2023/04/28 00:19:14;;;;;;;3.23;2.93;;;;;;;;;;5032112;28;20971;-58
2023/04/28 00:21:40;;;;;;;6.97;2.87;;;;;;;;;;5032039;28;20434;-58
2023/04/28 00:24:06;;;;;;;2.20;2.13;;;;;;;;;;5034005;28;20452;-58
2023/04/28 00:26:32;;;;;;;3.10;2.90;;;;;;;;;;5035967;28;20428;-58
2023/04/28 00:29:00;;;;;;;2.70;2.60;;;;;;;;;;5035741;28;21034;-58
2023/04/28 00:31:26;;;;;;;2.93;2.83;;;;;;;;;;5035606;28;20816;-58
2023/04/28 00:33:52;;;;;;;2.63;2.63;;;;;;;;;;5035697;28;20410;-58
2023/04/28 00:36:18;;;;;;;2.47;2.30;;;;;;;;;;5035695;28;20778;-58
2023/04/28 00:38:44;;;;;;;2.70;2.50;;;;;;;;;;5035335;28;20418;-58
2023/04/28 00:41:13;;;;;;;2.40;2.40;;;;;;;;;;5035437;28;20774;-58
2023/04/28 00:43:48;;;;;;;2.20;2.20;;;;;;;;;;5035217;28;20419;-58
2023/04/28 00:46:26;;;;;;;2.97;2.80;;;;;;;;;;5035600;28;20913;-58
2023/04/28 00:48:54;;;;;;;2.47;2.37;;;;;;;;;;5035481;28;20904;-58
2023/04/28 00:51:20;;;;;;;2.87;2.60;;;;;;;;;;5035486;28;20776;-58
2023/04/28 00:53:47;;;;;;;3.03;2.90;;;;;;;;;;5035313;28;20423;-57
2023/04/28 00:56:13;;;;;;;3.27;3.03;;;;;;;;;;5035409;28;20945;-58
2023/04/28 00:58:39;;;;;;;3.30;3.00;;;;;;;;;;5035350;28;20765;-58
2023/04/28 01:01:05;;;;;;;3.87;3.70;;;;;;;;;;5035587;28;20902;-58
2023/04/28 01:03:33;;;;;;;3.60;3.40;;;;;;;;;;5035340;28;20976;-57
2023/04/28 01:06:00;;;;;;;6.70;3.70;;;;;;;;;;5035047;28;20469;-57
2023/04/28 01:08:35;;;;;;;3.70;3.00;;;;;;;;;;5035170;28;21036;-58
2023/04/28 01:11:01;;;;;;;3.97;3.70;;;;;;;;;;5034537;28;20487;-58
2023/04/28 01:13:27;;;;;;;3.57;3.40;;;;;;;;;;5035000;28;20414;-58
2023/04/28 01:15:55;;;;;;;4.70;3.60;;;;;;;;;;5034849;28;20780;-58
2023/04/28 01:18:21;;;;;;;4.13;3.90;;;;;;;;;;5034756;28;20458;-57
2023/04/28 01:20:47;;;;;;;3.70;3.40;;;;;;;;;;5034730;28;20423;-59
2023/04/28 01:23:13;;;;;;;3.93;3.67;;;;;;;;;;5034786;28;20417;-58
2023/04/28 01:25:40;;;;;;;4.93;4.53;;;;;;;;;;5034684;28;20448;-59
2023/04/28 01:28:06;;;;;;;4.90;4.33;;;;;;;;;;5035398;28;20414;-59
2023/04/28 01:30:31;;;;;;;5.67;4.50;;;;;;;;;;5034666;28;20492;-59
2023/04/28 01:33:00;;;;;;;4.73;4.33;;;;;;;;;;5034456;28;20885;-59
2023/04/28 01:35:31;;;;;;;5.00;4.70;;;;;;;;;;5034305;28;20931;-59
2023/04/28 01:37:59;;;;;;;5.13;4.53;;;;;;;;;;5034434;28;20563;-59
2023/04/28 01:40:27;;;;;;;4.57;4.27;;;;;;;;;;5034478;28;20425;-59
2023/04/28 01:42:53;;;;;;;4.57;4.37;;;;;;;;;;5034498;28;20420;-59
2023/04/28 01:45:19;;;;;;;4.73;4.47;;;;;;;;;;5034536;28;20436;-58
2023/04/28 01:47:45;;;;;;;7.83;4.50;;;;;;;;;;5034549;28;20408;-58
2023/04/28 01:50:11;;;;;;;5.70;5.17;;;;;;;;;;5034164;28;21033;-58
2023/04/28 01:52:40;;;;;;;6.23;5.83;;;;;;;;;;5034336;28;20516;-59
2023/04/28 01:55:06;;;;;;;7.40;5.93;;;;;;;;;;5034214;28;20516;-59
2023/04/28 01:57:35;;;;;;;5.30;4.90;;;;;;;;;;5034198;28;20442;-59
2023/04/28 02:00:02;;;;;;;7.20;6.70;;;;;;;;;;5034245;28;20922;-59
2023/04/28 02:02:30;;;;;;;7.93;6.93;;;;;;;;;;5034201;28;20459;-58
2023/04/28 02:04:57;;;;;;;13.17;8.13;;;;;;;;;;5034140;28;20421;-58
2023/04/28 02:07:23;;;;;;;9.27;8.37;;;;;;;;;;5034299;28;20416;-58
2023/04/28 02:09:49;;;;;;;10.97;9.80;;;;;;;;;;5033789;28;20477;-58
2023/04/28 02:12:16;;;;;;;12.27;10.80;;;;;;;;;;5033513;28;20408;-58
2023/04/28 02:14:42;;;;;;;12.90;11.30;;;;;;;;;;5033788;28;20427;-58
2023/04/28 02:17:08;;;;;;;14.03;10.67;;;;;;;;;;5033834;28;20511;-58
2023/04/28 02:19:34;;;;;;;13.70;10.37;;;;;;;;;;5033693;28;20420;-58
2023/04/28 02:22:02;;;;;;;9.53;8.60;;;;;;;;;;5033761;28;20388;-58
2023/04/28 02:24:31;;;;;;;9.47;8.47;;;;;;;;;;5033846;28;20506;-58
2023/04/28 02:26:57;;;;;;;11.53;8.97;;;;;;;;;;5032451;28;20518;-57
2023/04/28 02:29:23;;;;;;;13.80;7.70;;;;;;;;;;5032142;28;20468;-58
2023/04/28 02:31:52;;;;;;;14.10;7.20;;;;;;;;;;5033212;28;20446;-58
2023/04/28 02:34:20;;;;;;;8.80;7.57;;;;;;;;;;5033323;28;20408;-58
2023/04/28 02:36:47;;;;;;;7.80;7.20;;;;;;;;;;5033353;28;20438;-58
2023/04/28 02:39:15;;;;;;;7.50;6.90;;;;;;;;;;5033612;28;20535;-59
2023/04/28 02:41:41;;;;;;;7.87;7.10;;;;;;;;;;5033256;28;20448;-58
2023/04/28 02:44:07;;;;;;;7.83;7.03;;;;;;;;;;5033232;28;20458;-57
2023/04/28 02:46:33;;;;;;;11.43;7.53;;;;;;;;;;5032570;28;20890;-58
2023/04/28 02:48:59;;;;;;;9.57;7.07;;;;;;;;;;5033188;28;20880;-57
2023/04/28 02:51:25;;;;;;;7.60;6.40;;;;;;;;;;5033161;28;20511;-58
2023/04/28 02:53:51;;;;;;;6.33;5.73;;;;;;;;;;5033057;28;20892;-58
2023/04/28 02:56:17;;;;;;;5.87;5.37;;;;;;;;;;5033124;28;20427;-58
2023/04/28 02:58:43;;;;;;;5.30;5.00;;;;;;;;;;5032872;28;20434;-56
2023/04/28 03:01:12;;;;;;;4.93;4.73;;;;;;;;;;5032852;28;20780;-57
2023/04/28 03:03:38;;;;;;;5.20;4.80;;;;;;;;;;5032912;28;20788;-58
2023/04/28 03:06:04;;;;;;;5.70;5.13;;;;;;;;;;5033039;28;20409;-58
2023/04/28 03:08:33;;;;;;;4.10;3.90;;;;;;;;;;5032641;28;20428;-58
2023/04/28 03:10:59;;;;;;;4.40;4.10;;;;;;;;;;5032100;28;20838;-58
2023/04/28 03:13:26;;;;;;;5.03;4.03;;;;;;;;;;5031532;28;20542;-58
2023/04/28 03:15:52;;;;;;;3.90;3.70;;;;;;;;;;5031731;28;20443;-58
2023/04/28 03:18:18;;;;;;;5.77;3.63;;;;;;;;;;5031848;28;20404;-58
2023/04/28 03:20:44;;;;;;;5.03;4.70;;;;;;;;;;5031919;28;20416;-58
2023/04/28 03:23:10;;;;;;;4.37;3.90;;;;;;;;;;5032700;28;20885;-58
2023/04/28 03:25:36;;;;;;;4.50;4.20;;;;;;;;;;5032502;28;20424;-58
2023/04/28 03:28:02;;;;;;;11.83;4.40;;;;;;;;;;5032603;28;20413;-58
2023/04/28 03:30:28;;;;;;;8.63;4.43;;;;;;;;;;5032283;28;20499;-58
2023/04/28 03:32:54;;;;;;;8.13;4.83;;;;;;;;;;5032696;28;20467;-58
2023/04/28 03:35:20;;;;;;;5.93;4.67;;;;;;;;;;5032352;28;20915;-57
2023/04/28 03:37:46;;;;;;;4.60;4.20;;;;;;;;;;5032409;28;20428;-57
2023/04/28 03:40:15;;;;;;;5.27;4.77;;;;;;;;;;5032362;28;20420;-59
2023/04/28 03:42:41;;;;;;;6.60;4.73;;;;;;;;;;5032230;28;20788;-58
2023/04/28 03:45:07;;;;;;;5.00;4.70;;;;;;;;;;5032443;28;20412;-59
2023/04/28 03:47:33;;;;;;;5.97;5.00;;;;;;;;;;5032328;28;20516;-57
2023/04/28 03:49:59;;;;;;;5.17;4.90;;;;;;;;;;5032080;28;20641;-59
2023/04/28 03:52:27;;;;;;;4.70;4.50;;;;;;;;;;5032115;28;20928;-58
2023/04/28 03:54:53;;;;;;;9.27;6.30;;;;;;;;;;5032349;28;20991;-58
2023/04/28 03:57:22;;;;;;;7.57;5.43;;;;;;;;;;5031795;28;20503;-58
2023/04/28 03:59:48;;;;;;;5.20;4.90;;;;;;;;;;5031965;28;20432;-59
2023/04/28 04:02:14;;;;;;;5.93;5.33;;;;;;;;;;5031933;28;20781;-59
2023/04/28 04:04:40;;;;;;;6.13;5.60;;;;;;;;;;5031907;28;20416;-57
2023/04/28 04:07:06;;;;;;;5.70;5.30;;;;;;;;;;5031966;28;20830;-57
2023/04/28 04:09:32;;;;;;;6.40;5.80;;;;;;;;;;5031911;28;21037;-58
2023/04/28 04:11:59;;;;;;;5.87;5.47;;;;;;;;;;5031790;28;20524;-59
2023/04/28 04:14:25;;;;;;;6.17;5.43;;;;;;;;;;5032115;28;20918;-58
2023/04/28 04:16:54;;;;;;;7.57;7.00;;;;;;;;;;5032209;28;20404;-59
2023/04/28 04:19:22;;;;;;;8.80;6.20;;;;;;;;;;5032040;28;20483;-59
2023/04/28 04:21:51;;;;;;;8.30;6.80;;;;;;;;;;5032138;28;20420;-58
2023/04/28 04:24:17;;;;;;;6.17;5.67;;;;;;;;;;5031972;28;20516;-57
2023/04/28 04:26:43;;;;;;;32.57;25.63;;;;;;;;;;5031735;28;20868;-59
2023/04/28 04:29:09;;;;;;;17.73;15.67;;;;;;;;;;5031804;28;20469;-59
2023/04/28 04:31:35;;;;;;;11.40;10.30;;;;;;;;;;5031860;28;20490;-59
2023/04/28 04:34:03;;;;;;;8.80;8.10;;;;;;;;;;5031732;28;20440;-59
2023/04/28 04:36:32;;;;;;;9.30;8.47;;;;;;;;;;5031552;28;20449;-59
2023/04/28 04:38:58;;;;;;;11.23;9.43;;;;;;;;;;5031370;28;20418;-58
2023/04/28 04:41:25;;;;;;;13.03;11.43;;;;;;;;;;5031577;28;20496;-58
2023/04/28 04:43:54;;;;;;;10.60;9.50;;;;;;;;;;5031604;28;20432;-59
2023/04/28 04:46:20;;;;;;;8.50;7.47;;;;;;;;;;5031839;28;20451;-59
2023/04/28 04:48:49;;;;;;;7.63;5.90;;;;;;;;;;5031502;28;20413;-59
2023/04/28 04:51:15;;;;;;;5.83;4.83;;;;;;;;;;5031910;28;20425;-59
2023/04/28 04:53:41;;;;;;;4.90;4.50;;;;;;;;;;5031287;28;20399;-57
2023/04/28 04:56:07;;;;;;;4.30;4.10;;;;;;;;;;5031492;28;20427;-59
2023/04/28 04:58:33;;;;;;;3.57;3.37;;;;;;;;;;5031579;28;20405;-59
2023/04/28 05:00:59;;;;;;;6.17;5.67;;;;;;;;;;5030016;28;20498;-59
2023/04/28 05:03:25;;;;;;;11.13;7.97;;;;;;;;;;5030286;28;20784;-60
2023/04/28 05:05:51;;;;;;;4.00;3.70;;;;;;;;;;5031371;28;20406;-59
2023/04/28 05:08:16;;;;;;;4.50;3.83;;;;;;;;;;5030264;28;20473;-59
2023/04/28 05:10:42;;;;;;;4.40;4.07;;;;;;;;;;5034214;28;20468;-56
2023/04/28 05:13:08;;;;;;;4.37;4.00;;;;;;;;;;5035090;28;20423;-57
2023/04/28 05:15:34;;;;;;;5.40;5.10;;;;;;;;;;5035134;28;20748;-59
2023/04/28 05:18:07;;;;;;;5.00;4.70;;;;;;;;;;5034866;28;20424;-58
2023/04/28 05:20:33;;;;;;;5.40;4.90;;;;;;;;;;5035315;28;20420;-59
2023/04/28 05:22:59;;;;;;;4.43;4.23;;;;;;;;;;5034661;28;20986;-59
2023/04/28 05:25:25;;;;;;;4.23;4.00;;;;;;;;;;5034912;28;21025;-58
2023/04/28 05:27:51;;;;;;;4.87;4.50;;;;;;;;;;5034758;28;20421;-59
2023/04/28 05:30:17;;;;;;;4.60;4.30;;;;;;;;;;5034478;28;20480;-59
2023/04/28 05:32:43;;;;;;;4.20;4.00;;;;;;;;;;5034444;28;20405;-59
2023/04/28 05:35:14;;;;;;;4.73;4.43;;;;;;;;;;5034628;28;20864;-60
2023/04/28 05:37:42;;;;;;;6.90;6.30;;;;;;;;;;5034442;28;20408;-58
2023/04/28 05:40:08;;;;;;;4.53;4.33;;;;;;;;;;5034501;28;20451;-58
2023/04/28 05:42:34;;;;;;;6.50;4.63;;;;;;;;;;5034421;28;20453;-59
2023/04/28 05:45:01;;;;;;;5.00;4.80;;;;;;;;;;5034367;28;20786;-59
2023/04/28 05:47:29;;;;;;;4.33;3.93;;;;;;;;;;5034256;28;20513;-59
2023/04/28 05:49:59;;;;;;;5.37;4.97;;;;;;;;;;5034318;28;20469;-59
2023/04/28 05:52:25;;;;;;;7.40;6.80;;;;;;;;;;5034609;28;20443;-60
2023/04/28 05:54:51;;;;;;;4.43;4.33;;;;;;;;;;5034182;28;20417;-59
2023/04/28 05:57:21;;;;;;;21.20;11.80;;;;;;;;;;5033857;28;20469;-59
2023/04/28 05:59:47;;;;;;;5.00;4.70;;;;;;;;;;5034072;28;20410;-59
2023/04/28 06:02:13;;;;;;;5.10;4.80;;;;;;;;;;5034086;28;20799;-59
2023/04/28 06:04:41;;;;;;;5.17;4.87;;;;;;;;;;5034052;28;20427;-59
2023/04/28 06:07:07;;;;;;;5.53;5.00;;;;;;;;;;5034007;28;20416;-58
2023/04/28 06:09:33;;;;;;;5.90;5.60;;;;;;;;;;5033994;28;20975;-59
2023/04/28 06:11:59;;;;;;;17.00;11.77;;;;;;;;;;5033964;28;20489;-60
2023/04/28 06:14:28;;;;;;;6.17;5.73;;;;;;;;;;5034060;28;20504;-60
2023/04/28 06:16:53;;;;;;;8.63;5.97;;;;;;;;;;5033925;28;20469;-59
2023/04/28 06:19:20;;;;;;;5.80;5.40;;;;;;;;;;5033849;28;20423;-60
2023/04/28 06:21:46;;;;;;;6.10;5.70;;;;;;;;;;5033588;28;20515;-62
2023/04/28 06:24:12;;;;;;;6.13;5.73;;;;;;;;;;5033991;28;20847;-60
2023/04/28 06:26:40;;;;;;;11.93;6.40;;;;;;;;;;5033714;28;20515;-60
2023/04/28 06:29:06;;;;;;;6.57;6.00;;;;;;;;;;5033615;28;20420;-60
2023/04/28 06:31:32;;;;;;;5.70;5.30;;;;;;;;;;5033230;28;20778;-59
2023/04/28 06:33:58;;;;;;;6.67;6.07;;;;;;;;;;5033186;28;20488;-59
2023/04/28 06:36:24;;;;;;;7.40;6.20;;;;;;;;;;5032860;28;20571;-61
2023/04/28 06:38:50;;;;;;;8.43;6.20;;;;;;;;;;5032886;28;20835;-59
2023/04/28 06:41:16;;;;;;;6.20;5.73;;;;;;;;;;5032734;28;20403;-59
2023/04/28 06:43:42;;;;;;;7.00;6.40;;;;;;;;;;5033247;28;20435;-59
2023/04/28 06:46:09;;;;;;;7.40;6.70;;;;;;;;;;5033153;28;20447;-60
2023/04/28 06:48:35;;;;;;;6.80;6.30;;;;;;;;;;5033194;28;20416;-59
2023/04/28 06:51:01;;;;;;;8.10;7.50;;;;;;;;;;5032913;28;20448;-59
2023/04/28 06:53:27;;;;;;;7.70;6.97;;;;;;;;;;5033261;28;20539;-60
2023/04/28 06:55:53;;;;;;;13.70;8.30;;;;;;;;;;5031670;28;20497;-60
2023/04/28 06:58:20;;;;;;;7.50;6.80;;;;;;;;;;5033079;28;20436;-60
2023/04/28 07:00:45;;;;;;;9.27;8.30;;;;;;;;;;5032793;28;20419;-60
2023/04/28 07:03:12;;;;;;;8.40;7.67;;;;;;;;;;5032320;28;20440;-59
2023/04/28 07:05:40;;;;;;;11.30;7.83;;;;;;;;;;5032476;28;20628;-59
2023/04/28 07:08:06;;;;;;;9.83;8.83;;;;;;;;;;5032472;28;20786;-60
2023/04/28 07:10:32;;;;;;;9.97;7.30;;;;;;;;;;5032729;28;20470;-60
2023/04/28 07:12:58;;;;;;;9.60;8.40;;;;;;;;;;5032701;28;20416;-60
2023/04/28 07:15:24;;;;;;;9.90;7.30;;;;;;;;;;5032762;28;20409;-59
2023/04/28 07:17:50;;;;;;;13.00;8.93;;;;;;;;;;5032787;28;20404;-60
2023/04/28 07:20:16;;;;;;;9.20;6.87;;;;;;;;;;5032749;28;20444;-62
2023/04/28 07:22:42;;;;;;;9.60;7.17;;;;;;;;;;5032850;28;20467;-60
2023/04/28 07:25:08;;;;;;;9.50;7.33;;;;;;;;;;5032638;28;20985;-61
2023/04/28 07:27:34;;;;;;;7.63;6.93;;;;;;;;;;5032804;28;20412;-61
2023/04/28 07:30:00;;;;;;;6.93;6.50;;;;;;;;;;5032442;28;20481;-60
2023/04/28 07:32:26;;;;;;;7.53;6.47;;;;;;;;;;5032090;28;20414;-60
2023/04/28 07:34:52;;;;;;;8.23;7.43;;;;;;;;;;5032657;28;20412;-60
2023/04/28 07:37:18;;;;;;;7.67;7.17;;;;;;;;;;5033050;28;20428;-59
2023/04/28 07:39:44;;;;;;;7.00;6.50;;;;;;;;;;5032792;28;20443;-59
2023/04/28 07:42:11;;;;;;;6.87;6.50;;;;;;;;;;5032407;28;20442;-59
2023/04/28 07:44:37;;;;;;;5.93;5.53;;;;;;;;;;5032314;28;20435;-59
2023/04/28 07:47:03;;;;;;;6.37;4.93;;;;;;;;;;5032383;28;20448;-59
2023/04/28 07:49:29;;;;;;;7.90;5.30;;;;;;;;;;5030968;28;20503;-60
2023/04/28 07:51:55;;;;;;;8.13;5.23;;;;;;;;;;5032363;28;20507;-59
2023/04/28 07:54:21;;;;;;;5.53;5.03;;;;;;;;;;5032111;28;20434;-60
2023/04/28 07:56:47;;;;;;;8.90;5.63;;;;;;;;;;5032096;28;20432;-60
2023/04/28 07:59:13;;;;;;;5.47;5.13;;;;;;;;;;5032240;28;20457;-59
2023/04/28 08:01:40;;;;;;;6.37;4.93;;;;;;;;;;5032113;28;20898;-59
2023/04/28 08:04:06;;;;;;;5.07;4.80;;;;;;;;;;5032155;28;20907;-59
2023/04/28 08:06:32;;;;;;;5.70;5.40;;;;;;;;;;5032113;28;20397;-60
2023/04/28 08:08:58;;;;;;;7.70;5.17;;;;;;;;;;5032135;28;20408;-60
2023/04/28 08:11:24;;;;;;;4.77;4.43;;;;;;;;;;5032157;28;20437;-59
2023/04/28 08:13:50;;;;;;;5.03;4.63;;;;;;;;;;5032121;28;20400;-60
2023/04/28 08:16:16;;;;;;;4.90;4.60;;;;;;;;;;5032014;28;20412;-59
2023/04/28 08:18:42;;;;;;;6.67;4.97;;;;;;;;;;5031886;28;20817;-60
2023/04/28 08:21:09;;;;;;;5.13;4.80;;;;;;;;;;5032050;28;20723;-60
2023/04/28 08:23:35;;;;;;;4.93;4.73;;;;;;;;;;5032314;28;20430;-60
2023/04/28 08:26:01;;;;;;;5.67;5.37;;;;;;;;;;5032186;28;20445;-60
2023/04/28 08:28:27;;;;;;;5.07;4.60;;;;;;;;;;5032268;28;20462;-59
2023/04/28 08:30:54;;;;;;;5.43;5.03;;;;;;;;;;5032151;28;20475;-59
2023/04/28 08:33:20;;;;;;;6.73;5.00;;;;;;;;;;5032354;28;20497;-60
2023/04/28 08:35:48;;;;;;;5.10;5.00;;;;;;;;;;5032168;28;20521;-59
2023/04/28 08:38:17;;;;;;;5.60;5.20;;;;;;;;;;5032131;28;20456;-59
2023/04/28 08:40:43;;;;;;;5.53;5.27;;;;;;;;;;5030850;28;20426;-59
2023/04/28 08:43:10;;;;;;;6.03;5.53;;;;;;;;;;5032135;28;20924;-60
2023/04/28 08:45:40;;;;;;;5.90;5.50;;;;;;;;;;5034953;28;20428;-60
2023/04/28 08:48:11;;;;;;;6.23;5.83;;;;;;;;;;5035951;28;20900;-60
2023/04/28 08:50:39;;;;;;;6.80;6.30;;;;;;;;;;5035794;28;20464;-60
2023/04/28 08:53:06;;;;;;;7.70;6.47;;;;;;;;;;5035817;28;20425;-59
2023/04/28 08:55:33;;;;;;;7.60;7.00;;;;;;;;;;5035615;28;20428;-59
2023/04/28 08:57:59;;;;;;;7.73;7.13;;;;;;;;;;5035768;28;20489;-60
2023/04/28 09:00:25;;;;;;;7.00;6.60;;;;;;;;;;5035887;28;20414;-59
2023/04/28 09:02:51;;;;;;;8.43;6.90;;;;;;;;;;5035491;28;21008;-60
2023/04/28 09:05:18;;;;;;;7.60;7.00;;;;;;;;;;5035899;28;20413;-59
2023/04/28 09:07:49;;;;;;;8.57;6.97;;;;;;;;;;5035419;28;20520;-60
2023/04/28 09:10:17;;;;;;;8.00;7.27;;;;;;;;;;5035578;28;20517;-60
2023/04/28 09:12:43;;;;;;;7.47;6.80;;;;;;;;;;5035409;28;20460;-60
2023/04/28 09:15:09;;;;;;;7.17;6.43;;;;;;;;;;5035330;28;20405;-60
2023/04/28 09:17:48;;;;;;;7.90;7.17;;;;;;;;;;5035377;28;21000;-59
2023/04/28 09:20:25;;;;;;;8.10;7.30;;;;;;;;;;5034075;28;20420;-60
2023/04/28 09:22:51;;;;;;;7.13;6.50;;;;;;;;;;5035255;28;20450;-60
2023/04/28 09:25:21;;;;;;;6.47;6.03;;;;;;;;;;5035232;28;20504;-60
2023/04/28 09:27:50;;;;;;;6.93;6.43;;;;;;;;;;5035147;28;20432;-59
2023/04/28 09:30:16;;;;;;;6.07;5.80;;;;;;;;;;5035155;28;20509;-60
2023/04/28 09:32:42;;;;;;;6.30;5.90;;;;;;;;;;5034965;28;20930;-59
2023/04/28 09:35:08;;;;;;;7.20;6.70;;;;;;;;;;5035041;28;20417;-60
2023/04/28 09:37:37;;;;;;;6.13;5.60;;;;;;;;;;5035180;28;20751;-60
2023/04/28 09:40:07;;;;;;;8.90;5.93;;;;;;;;;;5034943;28;20413;-60
2023/04/28 09:42:34;;;;;;;7.00;6.40;;;;;;;;;;5035027;28;20436;-59
2023/04/28 09:45:07;;;;;;;6.80;6.30;;;;;;;;;;5035019;28;20425;-60
2023/04/28 09:47:36;;;;;;;6.73;6.30;;;;;;;;;;5034851;28;20495;-60
2023/04/28 09:50:05;;;;;;;6.53;6.13;;;;;;;;;;5034778;28;20560;-60
2023/04/28 09:52:32;;;;;;;6.70;6.30;;;;;;;;;;5034728;28;20512;-59
2023/04/28 09:55:03;;;;;;;10.97;6.30;;;;;;;;;;5034172;28;20427;-59
2023/04/28 09:57:33;;;;;;;6.50;6.03;;;;;;;;;;5033430;28;20997;-60
2023/04/28 09:59:59;;;;;;;6.73;5.97;;;;;;;;;;5034581;28;20452;-60
2023/04/28 10:02:26;;;;;;;6.00;5.70;;;;;;;;;;5034545;28;20448;-60
2023/04/28 10:04:52;;;;;;;6.10;5.80;;;;;;;;;;5033311;28;20882;-60
2023/04/28 10:07:21;;;;;;;7.40;6.90;;;;;;;;;;5034937;28;20444;-60
2023/04/28 10:09:51;;;;;;;7.73;6.20;;;;;;;;;;5035005;28;20508;-60
2023/04/28 10:12:17;;;;;;;7.13;6.43;;;;;;;;;;5034727;28;21000;-60
2023/04/28 10:14:44;;;;;;;7.10;6.60;;;;;;;;;;5034416;28;20418;-60
2023/04/28 10:17:11;;;;;;;7.53;6.57;;;;;;;;;;5034235;28;20509;-60
2023/04/28 10:19:37;;;;;;;7.30;6.80;;;;;;;;;;5034236;28;20419;-60
2023/04/28 10:22:09;;;;;;;6.70;6.40;;;;;;;;;;5033636;28;20396;-61
2023/04/28 10:24:47;;;;;;;7.73;5.80;;;;;;;;;;5032718;28;20451;-60
2023/04/28 10:27:13;;;;;;;5.73;5.43;;;;;;;;;;5033785;28;20425;-61
2023/04/28 10:29:39;;;;;;;6.10;5.80;;;;;;;;;;5031470;28;20562;-60
2023/04/28 10:32:14;;;;;;;7.43;6.87;;;;;;;;;;5033326;28;20437;-60
2023/04/28 10:34:40;;;;;;;5.77;5.33;;;;;;;;;;5033963;28;20494;-60
2023/04/28 10:37:06;;;;;;;6.63;6.10;;;;;;;;;;5033778;28;20423;-60
2023/04/28 10:39:32;;;;;;;5.13;5.00;;;;;;;;;;5033355;28;20482;-60
2023/04/28 10:41:58;;;;;;;5.40;5.20;;;;;;;;;;5033407;28;20403;-60
2023/04/28 10:44:30;;;;;;;5.50;5.00;;;;;;;;;;5033437;28;20971;-59
2023/04/28 10:47:08;;;;;;;5.30;5.10;;;;;;;;;;5033308;28;20415;-59
2023/04/28 10:49:52;;;;;;;5.50;5.10;;;;;;;;;;5033172;28;20474;-59
2023/04/28 10:52:36;;;;;;;5.53;5.33;;;;;;;;;;5033268;28;20419;-59
2023/04/28 10:55:21;;;;;;;5.27;4.70;;;;;;;;;;5033055;28;20475;-59
2023/04/28 10:58:07;;;;;;;5.53;5.33;;;;;;;;;;5033134;28;20461;-59
2023/04/28 11:00:33;;;;;;;5.07;4.83;;;;;;;;;;5032887;28;20436;-59
2023/04/28 11:02:59;;;;;;;4.63;4.33;;;;;;;;;;5033278;28;20813;-59
2023/04/28 11:05:27;;;;;;;4.60;4.50;;;;;;;;;;5032913;28;20428;-59
2023/04/28 11:08:11;;;;;;;4.83;4.50;;;;;;;;;;5032149;28;20411;-60
2023/04/28 11:10:56;;;;;;;21.57;15.40;;;;;;;;;;5032693;28;20468;-59
2023/04/28 11:13:26;;;;;;;4.77;4.37;;;;;;;;;;5032798;28;20395;-59
2023/04/28 11:16:04;;;;;;;4.70;4.50;;;;;;;;;;5032945;28;20490;-59
2023/04/28 11:18:51;;;;;;;6.83;3.93;;;;;;;;;;5032855;28;20423;-59
2023/04/28 11:21:22;;;;;;;4.97;4.67;;;;;;;;;;5032598;28;20409;-59
2023/04/28 11:23:49;;;;;;;4.00;3.87;;;;;;;;;;5032696;28;20447;-59
2023/04/28 11:26:15;;;;;;;3.90;3.70;;;;;;;;;;5032667;28;20508;-59
2023/04/28 11:28:48;;;;;;;3.23;3.13;;;;;;;;;;5032593;28;20467;-59
2023/04/28 11:31:22;;;;;;;3.90;3.50;;;;;;;;;;5032375;28;20516;-59
2023/04/28 11:34:15;;;;;;;3.87;3.77;;;;;;;;;;5032412;28;20527;-59
2023/04/28 11:36:41;;;;;;;4.10;3.50;;;;;;;;;;5032373;28;20416;-59
2023/04/28 11:39:14;;;;;;;3.90;3.80;;;;;;;;;;5032308;28;20434;-59
2023/04/28 11:41:43;;;;;;;3.97;3.67;;;;;;;;;;5032456;28;20416;-59
2023/04/28 11:44:09;;;;;;;4.00;3.70;;;;;;;;;;5032247;28;20421;-58
2023/04/28 11:46:35;;;;;;;3.93;3.83;;;;;;;;;;5032288;28;20416;-59
2023/04/28 11:49:05;;;;;;;4.20;4.00;;;;;;;;;;5032641;28;20761;-58
2023/04/28 11:51:38;;;;;;;3.80;3.70;;;;;;;;;;5032066;28;20410;-59
2023/04/28 11:54:10;;;;;;;5.90;3.37;;;;;;;;;;5032411;28;20402;-59
2023/04/28 11:56:37;;;;;;;3.27;3.17;;;;;;;;;;5031747;28;20445;-61
2023/04/28 11:59:04;;;;;;;4.30;3.90;;;;;;;;;;5032293;28;20437;-60
2023/04/28 12:01:33;;;;;;;5.20;3.10;;;;;;;;;;5032030;28;20441;-60
2023/04/28 12:03:59;;;;;;;3.10;3.00;;;;;;;;;;5032042;28;20406;-60
2023/04/28 12:06:30;;;;;;;3.23;2.93;;;;;;;;;;5030580;28;20560;-60
2023/04/28 12:08:56;;;;;;;3.37;3.13;;;;;;;;;;5030874;28;20399;-60
2023/04/28 12:11:22;;;;;;;3.20;3.00;;;;;;;;;;5030660;28;20466;-59
2023/04/28 12:14:08;;;;;;;4.00;3.60;;;;;;;;;;5032034;28;20926;-59
2023/04/28 12:16:43;;;;;;;2.90;2.70;;;;;;;;;;5031253;28;20442;-59
2023/04/28 12:19:10;;;;;;;3.40;3.10;;;;;;;;;;5034344;28;20901;-59
2023/04/28 12:21:37;;;;;;;3.23;3.10;;;;;;;;;;5035727;28;20420;-59
2023/04/28 12:24:13;;;;;;;3.80;3.60;;;;;;;;;;5035990;28;20508;-60
2023/04/28 12:26:39;;;;;;;2.43;2.33;;;;;;;;;;5035939;28;20408;-60
2023/04/28 12:29:05;;;;;;;3.27;3.07;;;;;;;;;;5036175;28;20442;-60
2023/04/28 12:31:31;;;;;;;2.90;2.77;;;;;;;;;;5035785;28;20450;-59
2023/04/28 12:33:59;;;;;;;3.10;3.00;;;;;;;;;;5036142;28;20501;-61
2023/04/28 12:36:25;;;;;;;8.33;3.07;;;;;;;;;;5035949;28;20414;-59
2023/04/28 12:38:54;;;;;;;3.00;2.90;;;;;;;;;;5035777;28;20428;-59
2023/04/28 12:41:20;;;;;;;4.17;3.40;;;;;;;;;;5035676;28;20412;-59
2023/04/28 12:43:46;;;;;;;3.93;3.40;;;;;;;;;;5035773;28;20490;-59
2023/04/28 12:46:14;;;;;;;4.13;2.80;;;;;;;;;;5035450;28;20906;-60
2023/04/28 12:48:40;;;;;;;2.27;2.17;;;;;;;;;;5035477;28;20412;-59
2023/04/28 12:51:07;;;;;;;4.50;2.87;;;;;;;;;;5035219;28;21031;-59
2023/04/28 12:53:33;;;;;;;2.60;2.50;;;;;;;;;;5035246;28;20946;-59
2023/04/28 12:55:59;;;;;;;2.93;2.73;;;;;;;;;;5034980;28;20534;-60
2023/04/28 12:58:25;;;;;;;3.80;2.40;;;;;;;;;;5034266;28;20842;-59
2023/04/28 13:00:51;;;;;;;2.60;2.50;;;;;;;;;;5034055;28;20463;-60
2023/04/28 13:03:18;;;;;;;4.17;2.30;;;;;;;;;;5034997;28;20431;-59
2023/04/28 13:05:44;;;;;;;2.50;2.30;;;;;;;;;;5034725;28;20451;-60
2023/04/28 13:08:11;;;;;;;1.90;1.90;;;;;;;;;;5035165;28;20467;-59
2023/04/28 13:10:40;;;;;;;2.13;2.03;;;;;;;;;;5034864;28;20463;-60
2023/04/28 13:13:06;;;;;;;2.37;2.27;;;;;;;;;;5035042;28;20408;-59
2023/04/28 13:15:32;;;;;;;2.33;2.23;;;;;;;;;;5034797;28;20765;-60
2023/04/28 13:17:58;;;;;;;2.40;2.30;;;;;;;;;;5035182;28;20413;-59
2023/04/28 13:20:24;;;;;;;3.00;2.70;;;;;;;;;;5034977;28;20413;-59
2023/04/28 13:22:51;;;;;;;2.20;2.10;;;;;;;;;;5035139;28;20434;-59
2023/04/28 13:25:17;;;;;;;2.33;2.23;;;;;;;;;;5034647;28;20954;-61
2023/04/28 13:27:43;;;;;;;3.00;1.70;;;;;;;;;;5034932;28;20431;-59
2023/04/28 13:30:09;;;;;;;1.93;1.83;;;;;;;;;;5033985;28;20475;-59
2023/04/28 13:32:35;;;;;;;4.87;2.30;;;;;;;;;;5034802;28;20503;-59
2023/04/28 13:35:01;;;;;;;1.73;1.63;;;;;;;;;;5034414;28;20471;-59
2023/04/28 13:37:29;;;;;;;2.30;2.10;;;;;;;;;;5034459;28;20984;-58
2023/04/28 13:39:56;;;;;;;1.70;1.70;;;;;;;;;;5034416;28;20414;-58
2023/04/28 13:42:25;;;;;;;5.03;1.73;;;;;;;;;;5034625;28;20439;-60
2023/04/28 13:44:51;;;;;;;2.13;1.80;;;;;;;;;;5034238;28;20521;-57
2023/04/28 13:47:18;;;;;;;7.60;2.30;;;;;;;;;;5034545;28;20445;-59
2023/04/28 13:49:44;;;;;;;1.43;1.43;;;;;;;;;;5034496;28;20451;-58
2023/04/28 13:52:10;;;;;;;2.27;2.20;;;;;;;;;;5033642;28;20412;-58
2023/04/28 13:54:36;;;;;;;2.03;2.03;;;;;;;;;;5033980;28;20420;-57
2023/04/28 13:57:02;;;;;;;2.83;2.30;;;;;;;;;;5033918;28;20837;-58
2023/04/28 13:59:27;;;;;;;2.40;2.30;;;;;;;;;;5033168;28;20487;-57
2023/04/28 14:01:56;;;;;;;2.17;1.90;;;;;;;;;;5034263;28;20516;-57
2023/04/28 14:04:24;;;;;;;4.77;1.87;;;;;;;;;;5034193;28;21051;-59
2023/04/28 14:06:51;;;;;;;1.73;1.63;;;;;;;;;;5034059;28;20420;-58
2023/04/28 14:09:17;;;;;;;2.63;1.87;;;;;;;;;;5034056;28;20443;-57
2023/04/28 14:11:44;;;;;;;1.90;1.80;;;;;;;;;;5032803;28;20446;-57
2023/04/28 14:14:11;;;;;;;4.33;2.30;;;;;;;;;;5034004;28;20432;-57
2023/04/28 14:16:37;;;;;;;2.93;1.70;;;;;;;;;;5033903;28;20414;-57
2023/04/28 14:19:06;;;;;;;2.30;2.20;;;;;;;;;;5033785;28;20413;-57
2023/04/28 14:21:33;;;;;;;1.97;1.97;;;;;;;;;;5033747;28;20875;-55
2023/04/28 14:23:59;;;;;;;3.47;1.97;;;;;;;;;;5033866;28;20428;-56
2023/04/28 14:26:27;;;;;;;3.87;1.80;;;;;;;;;;5033926;28;20418;-56
2023/04/28 14:28:53;;;;;;;2.20;1.90;;;;;;;;;;5032395;28;20436;-57
2023/04/28 14:31:20;;;;;;;1.77;1.67;;;;;;;;;;5033651;28;20464;-57
2023/04/28 14:33:46;;;;;;;3.90;1.67;;;;;;;;;;5032251;28;20433;-57
2023/04/28 14:36:12;;;;;;;1.80;1.70;;;;;;;;;;5032406;28;20412;-56
2023/04/28 14:38:38;;;;;;;1.70;1.70;;;;;;;;;;5032998;28;20764;-57
2023/04/28 14:41:04;;;;;;;2.20;1.40;;;;;;;;;;5033420;28;20427;-58
2023/04/28 14:43:30;;;;;;;2.23;1.47;;;;;;;;;;5032261;28;20899;-58